createdAt,value
2022-12-18T00:02:01.012Z,12.73
2022-12-18T00:04:31.655Z,12.73
2022-12-18T00:07:01.864Z,12.48
2022-12-18T00:09:40.050Z,12.30
2022-12-18T00:14:48.543Z,12.30
2022-12-18T00:17:18.669Z,12.63
2022-12-18T00:19:48.710Z,13.63
2022-12-18T00:22:18.783Z,13.23
2022-12-18T00:24:48.855Z,12.98
2022-12-18T00:27:18.979Z,12.02
2022-12-18T00:29:52.241Z,11.63
2022-12-18T00:32:22.276Z,12.90
2022-12-18T00:34:52.650Z,11.95
2022-12-18T00:37:22.953Z,12.30
2022-12-18T00:39:53.600Z,11.07
2022-12-18T00:42:36.060Z,12.63
2022-12-18T00:45:12.869Z,12.07
2022-12-18T00:47:43.699Z,12.32
2022-12-18T00:50:14.852Z,12.48
2022-12-18T00:52:44.959Z,11.30
2022-12-18T00:55:15.623Z,11.07
2022-12-18T00:57:46.648Z,12.10
2022-12-18T01:00:19.781Z,12.45
2022-12-18T01:02:50.079Z,12.48
2022-12-18T01:05:20.722Z,11.93
2022-12-18T01:07:51.041Z,11.57
2022-12-18T01:10:21.642Z,10.65
2022-12-18T01:12:51.786Z,11.93
2022-12-18T01:15:24.707Z,11.27
2022-12-18T01:17:56.376Z,11.60
2022-12-18T01:20:26.491Z,11.35
2022-12-18T01:22:56.508Z,11.07
2022-12-18T01:25:26.640Z,11.57
2022-12-18T01:27:57.071Z,9.90
2022-12-18T01:30:29.743Z,11.48
2022-12-18T01:32:59.751Z,11.13
2022-12-18T01:35:29.898Z,10.50
2022-12-18T01:38:00.191Z,10.70
2022-12-18T01:40:30.271Z,11.30
2022-12-18T01:43:00.298Z,11.80
2022-12-18T01:45:35.087Z,11.55
2022-12-18T01:48:07.633Z,10.98
2022-12-18T01:50:40.805Z,11.10
2022-12-18T01:53:15.287Z,10.20
2022-12-18T01:55:50.311Z,11.15
2022-12-18T01:58:21.445Z,11.48
2022-12-18T02:00:54.185Z,11.13
2022-12-18T02:03:24.450Z,12.00
2022-12-18T02:06:04.964Z,10.48
2022-12-18T02:08:41.325Z,12.00
2022-12-18T02:11:18.311Z,11.27
2022-12-18T02:13:57.035Z,11.38
2022-12-18T02:16:38.905Z,11.25
2022-12-18T02:19:20.468Z,11.38
2022-12-18T02:21:58.121Z,11.85
2022-12-18T02:24:39.330Z,10.93
2022-12-18T02:27:14.610Z,11.82
2022-12-18T02:29:56.008Z,12.65
2022-12-18T02:32:31.317Z,13.10
2022-12-18T02:35:03.476Z,13.00
2022-12-18T02:37:34.711Z,13.63
2022-12-18T02:40:07.680Z,12.00
2022-12-18T02:42:40.367Z,12.10
2022-12-18T02:45:11.299Z,12.23
2022-12-18T02:47:47.884Z,13.45
2022-12-18T02:50:24.751Z,12.23
2022-12-18T02:53:06.430Z,12.93
2022-12-18T02:55:48.403Z,13.20
2022-12-18T02:58:24.886Z,13.20
2022-12-18T03:04:07.187Z,13.07
2022-12-18T03:06:43.519Z,12.57
2022-12-18T03:09:17.531Z,13.23
2022-12-18T03:12:06.895Z,13.23
2022-12-18T03:14:42.245Z,12.88
2022-12-18T03:17:17.451Z,12.82
2022-12-18T03:19:50.386Z,14.00
2022-12-18T03:22:21.841Z,14.98
2022-12-18T03:24:52.958Z,14.50
2022-12-18T03:27:27.877Z,13.13
2022-12-18T03:30:08.567Z,13.85
2022-12-18T03:32:45.347Z,15.20
2022-12-18T03:35:21.318Z,14.55
2022-12-18T03:37:51.625Z,15.18
2022-12-18T03:40:23.208Z,14.98
2022-12-18T03:42:56.362Z,15.38
2022-12-18T03:45:33.568Z,14.70
2022-12-18T03:48:08.187Z,15.27
2022-12-18T03:50:44.150Z,15.35
2022-12-18T03:53:27.680Z,15.55
2022-12-18T03:55:59.379Z,15.43
2022-12-18T03:58:31.584Z,15.75
2022-12-18T04:01:09.012Z,16.38
2022-12-18T04:03:40.623Z,15.25
2022-12-18T04:06:11.998Z,16.38
2022-12-18T04:08:43.219Z,17.10
2022-12-18T04:11:13.357Z,14.25
2022-12-18T04:13:43.804Z,15.25
2022-12-18T04:16:16.690Z,16.08
2022-12-18T04:18:46.855Z,16.95
2022-12-18T04:21:16.880Z,18.25
2022-12-18T04:23:47.070Z,19.42
2022-12-18T04:26:17.255Z,19.17
2022-12-18T04:28:48.086Z,19.23
2022-12-18T04:31:20.826Z,20.13
2022-12-18T04:33:51.082Z,17.65
2022-12-18T04:36:21.202Z,19.83
2022-12-18T04:38:51.259Z,18.90
2022-12-18T04:41:21.391Z,17.38
2022-12-18T04:43:51.428Z,17.73
2022-12-18T04:46:24.282Z,18.52
2022-12-18T04:48:57.150Z,18.25
2022-12-18T04:51:27.162Z,18.10
2022-12-18T04:53:57.421Z,16.42
2022-12-18T04:56:27.730Z,16.02
2022-12-18T04:58:58.920Z,18.17
2022-12-18T05:01:34.816Z,16.65
2022-12-18T05:04:05.573Z,17.20
2022-12-18T05:06:35.759Z,16.33
2022-12-18T05:09:06.048Z,16.83
2022-12-18T05:11:36.188Z,18.27
2022-12-18T05:14:06.434Z,15.95
2022-12-18T05:16:39.382Z,15.18
2022-12-18T05:19:09.725Z,14.73
2022-12-18T05:21:39.905Z,14.55
2022-12-18T05:24:10.603Z,15.23
2022-12-18T05:26:40.735Z,15.32
2022-12-18T05:29:13.333Z,13.35
2022-12-18T05:31:46.864Z,13.65
2022-12-18T05:34:17.083Z,14.25
2022-12-18T05:36:47.108Z,16.95
2022-12-18T05:39:17.237Z,17.10
2022-12-18T05:41:50.253Z,17.58
2022-12-18T05:44:20.320Z,16.13
2022-12-18T05:46:53.125Z,17.00
2022-12-18T05:49:23.307Z,17.60
2022-12-18T05:51:53.348Z,17.00
2022-12-18T05:54:23.502Z,18.90
2022-12-18T05:56:53.607Z,15.52
2022-12-18T05:59:23.854Z,18.15
2022-12-18T06:01:56.652Z,17.92
2022-12-18T06:04:28.564Z,19.00
2022-12-18T06:06:58.745Z,15.85
2022-12-18T06:09:28.880Z,15.43
2022-12-18T06:11:58.911Z,16.75
2022-12-18T06:14:29.271Z,17.67
2022-12-18T06:17:01.976Z,17.95
2022-12-18T06:19:32.441Z,17.57
2022-12-18T06:22:02.515Z,16.85
2022-12-18T06:24:34.293Z,17.92
2022-12-18T06:27:04.362Z,16.73
2022-12-18T06:29:34.401Z,16.98
2022-12-18T06:32:07.793Z,17.60
2022-12-18T06:34:38.325Z,20.33
2022-12-18T06:37:08.472Z,22.25
2022-12-18T06:39:38.579Z,21.25
2022-12-18T06:42:09.123Z,19.38
2022-12-18T06:44:39.167Z,18.80
2022-12-18T06:47:11.966Z,18.52
2022-12-18T06:49:42.174Z,18.00
2022-12-18T06:52:12.264Z,17.35
2022-12-18T06:54:42.398Z,17.75
2022-12-18T06:57:12.523Z,17.92
2022-12-18T06:59:42.678Z,18.40
2022-12-18T07:02:17.694Z,19.98
2022-12-18T07:04:55.141Z,18.75
2022-12-18T07:07:25.244Z,18.83
2022-12-18T07:09:55.338Z,17.75
2022-12-18T07:12:28.351Z,18.30
2022-12-18T07:15:00.568Z,18.52
2022-12-18T07:17:33.544Z,18.10
2022-12-18T07:20:03.630Z,18.85
2022-12-18T07:22:33.732Z,20.40
2022-12-18T07:25:03.875Z,20.90
2022-12-18T07:27:34.059Z,19.70
2022-12-18T07:30:04.380Z,19.10
2022-12-18T07:32:37.274Z,19.48
2022-12-18T07:35:08.268Z,17.92
2022-12-18T07:37:38.393Z,16.25
2022-12-18T07:40:10.043Z,17.98
2022-12-18T07:42:40.624Z,18.23
2022-12-18T07:45:11.998Z,17.05
2022-12-18T07:47:45.106Z,17.20
2022-12-18T07:50:15.345Z,19.30
2022-12-18T07:52:45.591Z,18.17
2022-12-18T07:55:15.713Z,18.45
2022-12-18T07:57:57.602Z,18.60
2022-12-18T08:00:31.448Z,18.38
2022-12-18T08:03:04.247Z,16.60
2022-12-18T08:05:34.359Z,15.50
2022-12-18T08:08:04.472Z,16.27
2022-12-18T08:10:34.652Z,16.23
2022-12-18T08:13:05.496Z,17.42
2022-12-18T08:15:35.522Z,16.52
2022-12-18T08:18:13.883Z,16.17
2022-12-18T08:20:47.501Z,16.67
2022-12-18T08:23:17.662Z,15.27
2022-12-18T08:25:48.045Z,17.60
2022-12-18T08:28:21.714Z,17.33
2022-12-18T08:30:55.729Z,17.17
2022-12-18T08:33:28.447Z,16.50
2022-12-18T08:35:58.423Z,17.00
2022-12-18T08:38:28.659Z,17.77
2022-12-18T08:41:03.327Z,18.08
2022-12-18T08:43:46.173Z,17.88
2022-12-18T08:46:16.739Z,19.50
2022-12-18T08:48:49.647Z,18.67
2022-12-18T08:51:20.901Z,18.88
2022-12-18T08:53:51.652Z,15.80
2022-12-18T08:56:21.736Z,15.73
2022-12-18T08:58:54.819Z,15.43
2022-12-18T09:01:25.972Z,15.25
2022-12-18T09:03:58.806Z,14.50
2022-12-18T09:06:29.216Z,16.17
2022-12-18T09:09:00.810Z,11.95
2022-12-18T09:11:32.786Z,15.80
2022-12-18T09:14:04.456Z,16.17
2022-12-18T09:16:36.135Z,12.38
2022-12-18T09:19:09.417Z,16.77
2022-12-18T09:21:42.199Z,15.82
2022-12-18T09:24:17.310Z,16.60
2022-12-18T09:26:53.624Z,16.95
2022-12-18T09:29:28.436Z,14.40
2022-12-18T09:31:58.632Z,16.60
2022-12-18T09:34:31.257Z,15.90
2022-12-18T09:37:01.284Z,14.50
2022-12-18T09:39:31.416Z,15.48
2022-12-18T09:42:02.574Z,16.70
2022-12-18T09:44:44.490Z,16.95
2022-12-18T09:47:21.189Z,16.33
2022-12-18T09:49:57.047Z,14.18
2022-12-18T09:52:31.647Z,13.75
2022-12-18T09:55:05.825Z,15.93
2022-12-18T09:57:41.415Z,15.63
2022-12-18T10:00:21.355Z,16.63
2022-12-18T10:02:52.742Z,16.75
2022-12-18T10:05:37.335Z,16.45
2022-12-18T10:08:14.822Z,16.92
2022-12-18T10:10:51.231Z,15.77
2022-12-18T10:13:30.076Z,16.10
2022-12-18T10:16:13.598Z,14.70
2022-12-18T10:19:20.315Z,13.07
2022-12-18T10:22:01.752Z,15.48
2022-12-18T10:24:46.374Z,15.70
2022-12-18T10:27:19.717Z,15.63
2022-12-18T10:29:50.004Z,14.20
2022-12-18T10:32:22.416Z,14.73
2022-12-18T10:35:00.104Z,17.33
2022-12-18T10:37:34.095Z,16.55
2022-12-18T10:40:22.028Z,16.52
2022-12-18T10:43:07.391Z,17.70
2022-12-18T10:45:37.408Z,15.55
2022-12-18T10:48:08.261Z,15.05
2022-12-18T10:51:09.630Z,17.85
2022-12-18T10:53:36.225Z,15.75
2022-12-18T10:56:08.995Z,18.35
2022-12-18T10:58:42.198Z,17.38
2022-12-18T11:01:14.900Z,15.57
2022-12-18T11:03:46.497Z,15.85
2022-12-18T11:06:18.810Z,11.68
2022-12-18T11:09:09.367Z,19.38
2022-12-18T11:14:22.158Z,16.45
2022-12-18T11:19:45.395Z,17.15
2022-12-18T11:22:24.948Z,18.40
2022-12-18T11:25:32.318Z,18.45
2022-12-18T11:27:54.849Z,17.23
2022-12-18T11:30:27.115Z,18.38
2022-12-18T11:33:01.121Z,16.20
2022-12-18T11:35:42.194Z,17.10
2022-12-18T11:38:25.226Z,11.32
2022-12-18T11:41:08.065Z,13.68
2022-12-18T11:43:44.747Z,16.95
2022-12-18T11:46:20.029Z,15.57
2022-12-18T11:48:56.109Z,17.83
2022-12-18T11:51:32.391Z,18.10
2022-12-18T11:54:04.080Z,16.52
2022-12-18T11:56:40.273Z,17.25
2022-12-18T11:59:18.237Z,16.92
2022-12-18T12:01:54.950Z,15.52
2022-12-18T12:04:45.935Z,18.02
2022-12-18T12:07:29.577Z,17.30
2022-12-18T12:10:10.819Z,16.08
2022-12-18T12:12:59.527Z,13.30
2022-12-18T12:15:41.609Z,13.07
2022-12-18T12:18:29.863Z,16.95
2022-12-18T12:21:07.540Z,17.13
2022-12-18T12:23:48.489Z,14.55
2022-12-18T12:26:26.657Z,17.30
2022-12-18T12:29:14.340Z,18.80
2022-12-18T12:32:02.100Z,14.90
2022-12-18T12:34:40.953Z,15.68
2022-12-18T12:37:24.172Z,14.95
2022-12-18T12:39:56.987Z,18.00
2022-12-18T12:42:47.488Z,18.90
2022-12-18T12:45:26.726Z,19.38
2022-12-18T12:47:59.226Z,20.50
2022-12-18T12:50:30.223Z,18.45
2022-12-18T12:53:01.862Z,17.83
2022-12-18T12:55:33.736Z,18.45
2022-12-18T12:58:12.706Z,18.70
2022-12-18T13:00:50.618Z,18.08
2022-12-18T13:03:34.298Z,19.10
2022-12-18T13:06:09.747Z,19.27
2022-12-18T13:08:58.290Z,19.67
2022-12-18T13:12:04.089Z,18.35
2022-12-18T13:14:37.616Z,18.52
2022-12-18T13:17:37.287Z,19.05
2022-12-18T13:20:10.898Z,19.58
2022-12-18T13:22:43.351Z,18.77
2022-12-18T13:25:35.951Z,17.92
2022-12-18T13:28:15.386Z,16.48
2022-12-18T13:30:57.394Z,18.05
2022-12-18T13:34:16.521Z,18.38
2022-12-18T13:36:37.395Z,18.38
2022-12-18T13:39:35.508Z,19.23
2022-12-18T13:42:54.161Z,18.52
2022-12-18T13:45:47.387Z,15.95
2022-12-18T13:48:24.082Z,18.00
2022-12-18T13:51:04.536Z,19.60
2022-12-18T13:53:40.485Z,20.17
2022-12-18T13:56:11.589Z,21.05
2022-12-18T13:58:42.146Z,20.48
2022-12-18T14:01:28.322Z,18.83
2022-12-18T14:04:14.163Z,18.23
2022-12-18T14:06:46.972Z,21.88
2022-12-18T14:09:21.554Z,20.35
2022-12-18T14:11:53.204Z,15.40
2022-12-18T14:14:28.087Z,18.48
2022-12-18T14:17:03.280Z,19.08
2022-12-18T14:19:35.513Z,21.17
2022-12-18T14:22:08.503Z,21.67
2022-12-18T14:24:38.565Z,21.25
2022-12-18T14:27:23.897Z,22.85
2022-12-18T14:29:57.496Z,20.58
2022-12-18T14:32:27.589Z,22.40
2022-12-18T14:34:58.244Z,21.65
2022-12-18T14:37:32.257Z,20.55
2022-12-18T14:42:41.776Z,17.70
2022-12-18T14:45:42.617Z,21.48
2022-12-18T14:48:23.106Z,20.30
2022-12-18T14:51:03.887Z,17.00
2022-12-18T14:53:42.093Z,22.63
2022-12-18T14:56:20.612Z,21.83
2022-12-18T14:58:52.701Z,22.38
2022-12-18T15:01:25.348Z,20.52
2022-12-18T15:03:56.494Z,21.05
2022-12-18T15:06:33.003Z,20.77
2022-12-18T15:09:08.204Z,22.40
2022-12-18T15:11:47.466Z,22.40
2022-12-18T15:14:34.341Z,21.45
2022-12-18T15:17:07.330Z,24.98
2022-12-18T15:19:42.497Z,21.58
2022-12-18T15:22:24.514Z,24.55
2022-12-18T15:24:58.098Z,20.40
2022-12-18T15:27:34.546Z,22.80
2022-12-18T15:30:20.133Z,23.15
2022-12-18T15:32:51.367Z,22.73
2022-12-18T15:35:24.416Z,23.58
2022-12-18T15:37:55.856Z,23.92
2022-12-18T15:40:28.812Z,24.60
2022-12-18T15:43:12.468Z,25.88
2022-12-18T15:45:42.614Z,25.42
2022-12-18T15:48:24.019Z,24.27
2022-12-18T15:50:57.815Z,23.13
2022-12-18T15:53:29.203Z,22.52
2022-12-18T15:56:14.679Z,25.80
2022-12-18T15:58:44.804Z,21.75
2022-12-18T16:01:18.960Z,21.77
2022-12-18T16:06:19.244Z,17.95
2022-12-18T16:08:49.314Z,22.70
2022-12-18T16:11:39.168Z,21.08
2022-12-18T16:14:16.693Z,21.50
2022-12-18T16:16:47.080Z,22.75
2022-12-18T16:19:20.008Z,21.42
2022-12-18T16:21:51.218Z,21.15
2022-12-18T16:24:23.292Z,20.73
2022-12-18T16:26:57.153Z,22.27
2022-12-18T16:29:28.717Z,21.17
2022-12-18T16:31:59.158Z,22.27
2022-12-18T16:34:34.908Z,20.42
2022-12-18T16:37:07.868Z,21.80
2022-12-18T16:39:38.288Z,20.48
2022-12-18T16:42:17.690Z,20.92
2022-12-18T16:44:48.510Z,21.70
2022-12-18T16:47:18.861Z,22.10
2022-12-18T16:49:51.890Z,20.08
2022-12-18T16:52:23.192Z,20.95
2022-12-18T16:54:53.311Z,20.48
2022-12-18T16:57:26.376Z,21.83
2022-12-18T17:00:02.944Z,22.50
2022-12-18T17:02:35.241Z,20.75
2022-12-18T17:05:05.555Z,20.50
2022-12-18T17:07:36.654Z,19.65
2022-12-18T17:10:09.028Z,22.85
2022-12-18T17:12:43.016Z,20.90
2022-12-18T17:15:14.404Z,21.77
2022-12-18T17:17:44.423Z,21.58
2022-12-18T17:20:15.052Z,21.92
2022-12-18T17:22:45.075Z,20.63
2022-12-18T17:25:15.156Z,20.77
2022-12-18T17:27:47.928Z,20.52
2022-12-18T17:30:18.153Z,18.77
2022-12-18T17:32:48.276Z,21.70
2022-12-18T17:35:23.672Z,20.38
2022-12-18T17:37:53.958Z,20.63
2022-12-18T17:40:24.158Z,20.58
2022-12-18T17:42:58.312Z,19.95
2022-12-18T17:45:28.396Z,21.50
2022-12-18T17:48:00.074Z,21.27
2022-12-18T17:50:30.421Z,30.63
2022-12-18T17:53:02.841Z,27.38
2022-12-18T17:55:32.904Z,22.35
2022-12-18T17:58:11.056Z,21.55
2022-12-18T18:00:42.433Z,21.88
2022-12-18T18:03:12.878Z,21.38
2022-12-18T18:05:43.131Z,22.05
2022-12-18T18:08:13.691Z,23.63
2022-12-18T18:10:44.381Z,23.00
2022-12-18T18:13:38.724Z,21.48
2022-12-18T18:16:12.141Z,21.50
2022-12-18T18:18:42.608Z,22.67
2022-12-18T18:21:12.717Z,23.15
2022-12-18T18:23:45.104Z,29.95
2022-12-18T18:26:16.843Z,28.35
2022-12-18T18:28:49.713Z,24.88
2022-12-18T18:31:19.985Z,25.83
2022-12-18T18:33:50.343Z,22.30
2022-12-18T18:36:20.484Z,21.35
2022-12-18T18:38:50.585Z,19.95
2022-12-18T18:41:22.267Z,24.00
2022-12-18T18:43:57.493Z,24.70
2022-12-18T18:46:28.728Z,24.17
2022-12-18T18:48:58.948Z,20.88
2022-12-18T18:51:34.658Z,21.27
2022-12-18T18:54:05.718Z,20.98
2022-12-18T18:59:31.587Z,21.80
2022-12-18T19:02:04.648Z,21.27
2022-12-18T19:04:37.796Z,21.95
2022-12-18T19:07:29.744Z,21.13
2022-12-18T19:10:05.237Z,19.63
2022-12-18T19:12:49.115Z,22.00
2022-12-18T19:15:22.091Z,20.55
2022-12-18T19:17:52.250Z,20.90
2022-12-18T19:20:22.521Z,19.52
2022-12-18T19:22:55.316Z,22.90
2022-12-18T19:25:38.162Z,22.63
2022-12-18T19:28:21.466Z,19.55
2022-12-18T19:30:58.859Z,22.00
2022-12-18T19:33:42.872Z,21.75
2022-12-18T19:36:16.664Z,22.25
2022-12-18T19:38:47.330Z,21.80
2022-12-18T19:41:18.117Z,22.05
2022-12-18T19:43:49.390Z,24.15
2022-12-18T19:46:24.012Z,24.80
2022-12-18T19:48:55.131Z,21.58
2022-12-18T19:51:27.989Z,22.48
2022-12-18T19:54:01.234Z,23.50
2022-12-18T19:56:33.931Z,23.15
2022-12-18T19:59:05.067Z,22.00
2022-12-18T20:01:38.164Z,23.98
2022-12-18T20:04:08.509Z,24.77
2022-12-18T20:06:49.946Z,22.10
2022-12-18T20:09:20.917Z,22.75
2022-12-18T20:11:51.921Z,23.83
2022-12-18T20:14:23.427Z,22.90
2022-12-18T20:16:56.303Z,20.48
2022-12-18T20:19:27.013Z,23.40
2022-12-18T20:21:57.411Z,19.50
2022-12-18T20:24:28.094Z,22.65
2022-12-18T20:26:58.680Z,21.85
2022-12-18T20:29:32.097Z,21.88
2022-12-18T20:32:04.787Z,24.13
2022-12-18T20:34:35.135Z,24.40
2022-12-18T20:37:05.418Z,22.02
2022-12-18T20:39:36.274Z,24.42
2022-12-18T20:42:08.024Z,23.77
2022-12-18T20:44:38.213Z,23.92
2022-12-18T20:47:10.991Z,22.58
2022-12-18T20:49:42.654Z,23.63
2022-12-18T20:54:53.921Z,20.48
2022-12-18T20:57:24.136Z,22.13
2022-12-18T20:59:54.337Z,22.52
2022-12-18T21:02:27.280Z,23.25
2022-12-18T21:04:57.549Z,20.27
2022-12-18T21:07:27.650Z,19.15
2022-12-18T21:09:57.828Z,21.33
2022-12-18T21:15:16.273Z,21.58
2022-12-18T21:17:49.344Z,22.25
2022-12-18T21:20:19.793Z,22.80
2022-12-18T21:22:50.228Z,22.40
2022-12-18T21:25:20.556Z,23.08
2022-12-18T21:27:50.708Z,21.60
2022-12-18T21:30:20.897Z,21.05
2022-12-18T21:32:53.703Z,19.67
2022-12-18T21:35:23.741Z,20.35
2022-12-18T21:37:56.461Z,21.30
2022-12-18T21:40:27.424Z,18.08
2022-12-18T21:43:09.867Z,18.73
2022-12-18T21:45:41.278Z,20.20
2022-12-18T21:48:14.075Z,18.42
2022-12-18T21:50:44.235Z,20.02
2022-12-18T21:53:14.279Z,18.17
2022-12-18T21:55:44.506Z,17.65
2022-12-18T21:58:14.775Z,20.58
2022-12-18T22:00:48.678Z,19.80
2022-12-18T22:03:22.056Z,20.90
2022-12-18T22:06:08.880Z,20.08
2022-12-18T22:08:39.912Z,20.45
2022-12-18T22:13:46.447Z,18.65
2022-12-18T22:16:19.304Z,20.83
2022-12-18T22:18:52.027Z,18.00
2022-12-18T22:21:30.319Z,18.45
2022-12-18T22:24:02.155Z,18.83
2022-12-18T22:26:39.525Z,20.13
2022-12-18T22:29:24.832Z,17.90
2022-12-18T22:31:55.367Z,18.90
2022-12-18T22:34:28.023Z,19.17
2022-12-18T22:36:58.233Z,19.27
2022-12-18T22:39:29.758Z,17.92
2022-12-18T22:42:00.876Z,18.85
2022-12-18T22:44:31.285Z,18.33
2022-12-18T22:47:06.934Z,20.30
2022-12-18T22:49:40.579Z,20.02
2022-12-18T22:52:12.281Z,19.23
2022-12-18T22:54:43.498Z,19.88
2022-12-18T22:57:13.568Z,19.80
2022-12-18T22:59:45.042Z,18.38
2022-12-18T23:02:15.247Z,17.67
2022-12-18T23:04:48.148Z,15.40
2022-12-18T23:07:18.501Z,17.95
2022-12-18T23:09:50.734Z,17.35
2022-12-18T23:12:27.643Z,17.13
2022-12-18T23:14:57.745Z,19.42
2022-12-18T23:17:30.416Z,18.10
2022-12-18T23:20:03.229Z,18.75
2022-12-18T23:22:39.386Z,18.02
2022-12-18T23:25:12.791Z,18.88
2022-12-18T23:27:42.854Z,16.92
2022-12-18T23:30:14.467Z,18.35
2022-12-18T23:32:44.600Z,17.80
2022-12-18T23:35:17.517Z,18.17
2022-12-18T23:37:59.268Z,16.92
2022-12-18T23:40:30.013Z,17.50
2022-12-18T23:43:00.181Z,17.42
2022-12-18T23:45:30.458Z,17.13
2022-12-18T23:48:00.527Z,16.83
2022-12-18T23:50:33.239Z,16.92
2022-12-18T23:53:05.464Z,18.00
2022-12-18T23:55:40.206Z,17.65
2022-12-18T23:58:11.325Z,19.42
